sensor_id;sensor_type;location;lat;lon;timestamp;pressure;altitude;pressure_sealevel;temperature;humidity
84714;BME280;74938;42.658;23.248;2024-03-17T00:00:20;94245.09;;;6.34;76.13
84714;BME280;74938;42.658;23.248;2024-03-17T00:02:46;94254.44;;;6.57;75.32
84714;BME280;74938;42.658;23.248;2024-03-17T00:05:12;94250.44;;;6.55;74.43
84714;BME280;74938;42.658;23.248;2024-03-17T00:07:38;94245.03;;;6.42;75.36
84714;BME280;74938;42.658;23.248;2024-03-17T00:10:04;94246.53;;;6.28;75.19
84714;BME280;74938;42.658;23.248;2024-03-17T00:12:30;94247.00;;;6.32;75.66
84714;BME280;74938;42.658;23.248;2024-03-17T00:14:55;94246.69;;;6.35;75.78
84714;BME280;74938;42.658;23.248;2024-03-17T00:17:20;94237.38;;;5.94;77.14
84714;BME280;74938;42.658;23.248;2024-03-17T00:19:46;94243.00;;;5.82;76.63
84714;BME280;74938;42.658;23.248;2024-03-17T00:22:12;94248.66;;;5.53;78.82
84714;BME280;74938;42.658;23.248;2024-03-17T00:24:40;94247.69;;;5.38;78.56
84714;BME280;74938;42.658;23.248;2024-03-17T00:27:06;94242.72;;;5.69;78.76
84714;BME280;74938;42.658;23.248;2024-03-17T00:29:31;94243.63;;;5.84;76.78
84714;BME280;74938;42.658;23.248;2024-03-17T00:31:57;94241.53;;;5.96;76.93
84714;BME280;74938;42.658;23.248;2024-03-17T00:34:23;94244.59;;;5.91;77.32
84714;BME280;74938;42.658;23.248;2024-03-17T00:36:48;94238.03;;;5.80;76.60
84714;BME280;74938;42.658;23.248;2024-03-17T00:39:14;94236.47;;;5.71;78.04
84714;BME280;74938;42.658;23.248;2024-03-17T00:41:40;94233.69;;;5.73;77.35
84714;BME280;74938;42.658;23.248;2024-03-17T00:44:05;94232.09;;;5.80;78.23
84714;BME280;74938;42.658;23.248;2024-03-17T00:46:31;94234.16;;;5.84;78.09
84714;BME280;74938;42.658;23.248;2024-03-17T00:48:58;94234.81;;;5.86;76.36
84714;BME280;74938;42.658;23.248;2024-03-17T00:51:25;94241.53;;;5.96;77.23
84714;BME280;74938;42.658;23.248;2024-03-17T00:53:50;94236.91;;;5.75;76.64
84714;BME280;74938;42.658;23.248;2024-03-17T00:56:16;94234.16;;;5.84;76.98
84714;BME280;74938;42.658;23.248;2024-03-17T00:58:41;94241.09;;;5.68;77.90
84714;BME280;74938;42.658;23.248;2024-03-17T01:01:07;94241.09;;;5.59;78.45
84714;BME280;74938;42.658;23.248;2024-03-17T01:03:33;94241.41;;;5.56;77.60
84714;BME280;74938;42.658;23.248;2024-03-17T01:05:58;94245.63;;;5.49;78.63
84714;BME280;74938;42.658;23.248;2024-03-17T01:08:23;94250.91;;;5.48;78.92
84714;BME280;74938;42.658;23.248;2024-03-17T01:10:49;94240.94;;;5.61;78.29
84714;BME280;74938;42.658;23.248;2024-03-17T01:13:15;94237.91;;;5.66;77.21
84714;BME280;74938;42.658;23.248;2024-03-17T01:15:40;94244.50;;;5.52;77.56
84714;BME280;74938;42.658;23.248;2024-03-17T01:18:06;94239.72;;;5.33;78.34
84714;BME280;74938;42.658;23.248;2024-03-17T01:20:32;94241.44;;;5.40;77.87
84714;BME280;74938;42.658;23.248;2024-03-17T01:22:59;94242.91;;;5.35;77.55
84714;BME280;74938;42.658;23.248;2024-03-17T01:25:25;94242.91;;;4.94;79.55
84714;BME280;74938;42.658;23.248;2024-03-17T01:27:55;94243.72;;;5.11;79.81
84714;BME280;74938;42.658;23.248;2024-03-17T01:30:20;94243.06;;;5.33;78.79
84714;BME280;74938;42.658;23.248;2024-03-17T01:32:46;94245.94;;;5.46;78.19
84714;BME280;74938;42.658;23.248;2024-03-17T01:35:12;94244.63;;;5.58;77.78
84714;BME280;74938;42.658;23.248;2024-03-17T01:37:38;94235.34;;;5.57;77.66
84714;BME280;74938;42.658;23.248;2024-03-17T01:40:03;94246.72;;;5.39;78.32
84714;BME280;74938;42.658;23.248;2024-03-17T01:42:39;94234.72;;;5.47;78.57
84714;BME280;74938;42.658;23.248;2024-03-17T01:47:42;94236.00;;;5.27;79.46
84714;BME280;74938;42.658;23.248;2024-03-17T01:50:09;94240.19;;;5.36;78.85
84714;BME280;74938;42.658;23.248;2024-03-17T01:52:36;94232.63;;;5.43;79.07
84714;BME280;74938;42.658;23.248;2024-03-17T01:55:02;94237.00;;;5.18;78.27
84714;BME280;74938;42.658;23.248;2024-03-17T01:57:28;94235.22;;;5.27;78.75
84714;BME280;74938;42.658;23.248;2024-03-17T01:59:55;94235.22;;;5.35;78.03
84714;BME280;74938;42.658;23.248;2024-03-17T02:02:21;94236.66;;;5.29;77.81
84714;BME280;74938;42.658;23.248;2024-03-17T02:04:46;94233.78;;;5.32;78.36
84714;BME280;74938;42.658;23.248;2024-03-17T02:07:13;94233.00;;;5.15;78.78
84714;BME280;74938;42.658;23.248;2024-03-17T02:09:40;94225.78;;;4.95;78.99
84714;BME280;74938;42.658;23.248;2024-03-17T02:12:06;94237.78;;;5.18;77.87
84714;BME280;74938;42.658;23.248;2024-03-17T02:14:32;94232.47;;;5.04;78.47
84714;BME280;74938;42.658;23.248;2024-03-17T02:16:58;94233.78;;;5.00;79.08
84714;BME280;74938;42.658;23.248;2024-03-17T02:19:24;94231.53;;;4.88;80.07
84714;BME280;74938;42.658;23.248;2024-03-17T02:21:49;94234.25;;;4.95;78.40
84714;BME280;74938;42.658;23.248;2024-03-17T02:24:14;94229.91;;;4.87;79.51
84714;BME280;74938;42.658;23.248;2024-03-17T02:26:40;94239.22;;;4.97;80.14
84714;BME280;74938;42.658;23.248;2024-03-17T02:29:05;94230.72;;;5.04;79.71
84714;BME280;74938;42.658;23.248;2024-03-17T02:31:31;94229.41;;;4.60;79.56
84714;BME280;74938;42.658;23.248;2024-03-17T02:33:56;94237.44;;;4.14;82.45
84714;BME280;74938;42.658;23.248;2024-03-17T02:36:21;94233.75;;;4.09;82.64
84714;BME280;74938;42.658;23.248;2024-03-17T02:38:47;94240.81;;;4.15;83.43
84714;BME280;74938;42.658;23.248;2024-03-17T02:41:31;94224.75;;;4.47;81.51
84714;BME280;74938;42.658;23.248;2024-03-17T02:43:56;94228.97;;;4.80;79.77
84714;BME280;74938;42.658;23.248;2024-03-17T02:46:22;94230.72;;;4.88;78.88
84714;BME280;74938;42.658;23.248;2024-03-17T02:48:51;94228.63;;;4.67;79.50
84714;BME280;74938;42.658;23.248;2024-03-17T02:51:19;94226.25;;;4.82;79.30
84714;BME280;74938;42.658;23.248;2024-03-17T02:53:46;94230.25;;;4.76;80.06
84714;BME280;74938;42.658;23.248;2024-03-17T02:56:12;94231.66;;;4.71;81.44
84714;BME280;74938;42.658;23.248;2024-03-17T02:58:39;94230.25;;;4.84;79.08
84714;BME280;74938;42.658;23.248;2024-03-17T03:01:05;94222.56;;;4.76;80.99
84714;BME280;74938;42.658;23.248;2024-03-17T03:03:31;94223.38;;;4.93;79.68
84714;BME280;74938;42.658;23.248;2024-03-17T03:05:57;94227.53;;;4.78;80.18
84714;BME280;74938;42.658;23.248;2024-03-17T03:08:23;94222.22;;;4.71;79.93
84714;BME280;74938;42.658;23.248;2024-03-17T03:10:49;94224.16;;;4.85;80.27
84714;BME280;74938;42.658;23.248;2024-03-17T03:13:14;94219.81;;;4.62;80.80
84714;BME280;74938;42.658;23.248;2024-03-17T03:15:40;94220.47;;;4.88;80.12
84714;BME280;74938;42.658;23.248;2024-03-17T03:18:05;94218.72;;;4.80;80.18
84714;BME280;74938;42.658;23.248;2024-03-17T03:20:31;94215.69;;;4.93;79.26
84714;BME280;74938;42.658;23.248;2024-03-17T03:22:56;94214.91;;;4.84;78.19
84714;BME280;74938;42.658;23.248;2024-03-17T03:25:21;94213.91;;;4.85;79.26
84714;BME280;74938;42.658;23.248;2024-03-17T03:27:48;94211.81;;;4.73;80.37
84714;BME280;74938;42.658;23.248;2024-03-17T03:30:14;94214.25;;;4.82;80.32
84714;BME280;74938;42.658;23.248;2024-03-17T03:32:41;94214.56;;;4.87;79.05
84714;BME280;74938;42.658;23.248;2024-03-17T03:35:07;94214.72;;;4.78;78.94
84714;BME280;74938;42.658;23.248;2024-03-17T03:37:33;94216.63;;;4.60;79.28
84714;BME280;74938;42.658;23.248;2024-03-17T03:39:58;94223.81;;;4.64;80.44
84714;BME280;74938;42.658;23.248;2024-03-17T03:42:24;94232.00;;;4.17;81.54
84714;BME280;74938;42.658;23.248;2024-03-17T03:44:49;94225.72;;;4.46;80.32
84714;BME280;74938;42.658;23.248;2024-03-17T03:47:15;94230.19;;;4.52;80.30
84714;BME280;74938;42.658;23.248;2024-03-17T03:49:40;94235.63;;;4.49;80.10
84714;BME280;74938;42.658;23.248;2024-03-17T03:52:06;94236.88;;;4.37;82.00
84714;BME280;74938;42.658;23.248;2024-03-17T03:54:31;94239.13;;;4.40;80.81
84714;BME280;74938;42.658;23.248;2024-03-17T03:56:56;94243.88;;;4.35;81.77
84714;BME280;74938;42.658;23.248;2024-03-17T03:59:23;94244.53;;;4.29;82.14
84714;BME280;74938;42.658;23.248;2024-03-17T04:01:49;94247.91;;;4.37;80.60
84714;BME280;74938;42.658;23.248;2024-03-17T04:04:14;94243.78;;;4.44;82.09
84714;BME280;74938;42.658;23.248;2024-03-17T04:06:40;94251.66;;;4.59;79.94
84714;BME280;74938;42.658;23.248;2024-03-17T04:09:05;94246.84;;;4.56;80.19
84714;BME280;74938;42.658;23.248;2024-03-17T04:11:33;94244.31;;;4.64;80.50
84714;BME280;74938;42.658;23.248;2024-03-17T04:13:59;94244.78;;;4.68;80.95
84714;BME280;74938;42.658;23.248;2024-03-17T04:16:26;94261.91;;;4.75;79.70
84714;BME280;74938;42.658;23.248;2024-03-17T04:18:52;94252.75;;;4.48;79.74
84714;BME280;74938;42.658;23.248;2024-03-17T04:21:17;94260.97;;;4.76;80.17
84714;BME280;74938;42.658;23.248;2024-03-17T04:23:43;94262.88;;;4.66;80.95
84714;BME280;74938;42.658;23.248;2024-03-17T04:26:09;94265.59;;;4.65;80.93
84714;BME280;74938;42.658;23.248;2024-03-17T04:28:34;94265.91;;;4.70;80.33
84714;BME280;74938;42.658;23.248;2024-03-17T04:31:08;94268.47;;;4.86;79.40
84714;BME280;74938;42.658;23.248;2024-03-17T04:33:34;94269.94;;;4.88;80.61
84714;BME280;74938;42.658;23.248;2024-03-17T04:36:00;94279.84;;;4.75;80.49
84714;BME280;74938;42.658;23.248;2024-03-17T04:38:27;94267.16;;;4.58;81.10
84714;BME280;74938;42.658;23.248;2024-03-17T04:40:53;94284.75;;;4.61;81.66
84714;BME280;74938;42.658;23.248;2024-03-17T04:43:32;94279.66;;;4.61;80.52
84714;BME280;74938;42.658;23.248;2024-03-17T04:46:04;94277.25;;;4.59;80.88
84714;BME280;74938;42.658;23.248;2024-03-17T04:48:32;94287.97;;;4.63;79.94
84714;BME280;74938;42.658;23.248;2024-03-17T04:50:58;94286.06;;;4.73;79.27
84714;BME280;74938;42.658;23.248;2024-03-17T04:53:24;94288.63;;;4.73;79.60
84714;BME280;74938;42.658;23.248;2024-03-17T04:56:03;94295.84;;;4.85;79.02
84714;BME280;74938;42.658;23.248;2024-03-17T04:58:32;94294.25;;;4.76;78.51
84714;BME280;74938;42.658;23.248;2024-03-17T05:01:11;94299.88;;;4.96;78.75
84714;BME280;74938;42.658;23.248;2024-03-17T05:03:38;94306.63;;;5.13;78.73
84714;BME280;74938;42.658;23.248;2024-03-17T05:06:04;94300.53;;;5.22;78.67
84714;BME280;74938;42.658;23.248;2024-03-17T05:08:31;94301.69;;;5.28;78.90
84714;BME280;74938;42.658;23.248;2024-03-17T05:10:58;94310.16;;;5.45;77.61
84714;BME280;74938;42.658;23.248;2024-03-17T05:13:25;94321.25;;;5.53;77.95
84714;BME280;74938;42.658;23.248;2024-03-17T05:15:51;94316.88;;;5.21;79.13
84714;BME280;74938;42.658;23.248;2024-03-17T05:18:16;94313.34;;;5.22;77.97
84714;BME280;74938;42.658;23.248;2024-03-17T05:20:42;94324.91;;;5.67;77.24
84714;BME280;74938;42.658;23.248;2024-03-17T05:23:07;94325.84;;;5.74;78.44
84714;BME280;74938;42.658;23.248;2024-03-17T05:25:32;94331.16;;;5.97;77.79
84714;BME280;74938;42.658;23.248;2024-03-17T05:28:01;94331.47;;;6.02;78.05
84714;BME280;74938;42.658;23.248;2024-03-17T05:30:27;94335.47;;;5.97;77.72
84714;BME280;74938;42.658;23.248;2024-03-17T05:32:52;94332.41;;;6.17;77.36
84714;BME280;74938;42.658;23.248;2024-03-17T05:35:17;94319.84;;;6.31;77.47
84714;BME280;74938;42.658;23.248;2024-03-17T05:37:43;94317.59;;;6.27;77.92
84714;BME280;74938;42.658;23.248;2024-03-17T05:40:10;94330.97;;;6.15;78.83
84714;BME280;74938;42.658;23.248;2024-03-17T05:42:37;94326.44;;;6.25;78.38
84714;BME280;74938;42.658;23.248;2024-03-17T05:45:03;94321.19;;;6.10;79.24
84714;BME280;74938;42.658;23.248;2024-03-17T05:47:29;94317.28;;;6.31;78.58
84714;BME280;74938;42.658;23.248;2024-03-17T05:49:55;94320.03;;;6.68;76.46
84714;BME280;74938;42.658;23.248;2024-03-17T05:52:21;94321.97;;;6.66;76.22
84714;BME280;74938;42.658;23.248;2024-03-17T05:54:47;94322.50;;;6.92;76.20
84714;BME280;74938;42.658;23.248;2024-03-17T05:57:12;94325.13;;;7.30;74.96
84714;BME280;74938;42.658;23.248;2024-03-17T05:59:39;94318.84;;;7.32;74.26
84714;BME280;74938;42.658;23.248;2024-03-17T06:02:04;94322.06;;;7.34;73.97
84714;BME280;74938;42.658;23.248;2024-03-17T06:04:30;94324.34;;;7.29;73.56
84714;BME280;74938;42.658;23.248;2024-03-17T06:06:55;94326.63;;;7.47;71.78
84714;BME280;74938;42.658;23.248;2024-03-17T06:09:20;94328.00;;;7.35;72.03
84714;BME280;74938;42.658;23.248;2024-03-17T06:11:46;94333.38;;;7.48;71.67
84714;BME280;74938;42.658;23.248;2024-03-17T06:14:12;94331.75;;;7.70;70.62
84714;BME280;74938;42.658;23.248;2024-03-17T06:16:38;94335.16;;;7.85;70.19
84714;BME280;74938;42.658;23.248;2024-03-17T06:19:04;94337.38;;;8.26;68.26
84714;BME280;74938;42.658;23.248;2024-03-17T06:21:29;94337.91;;;8.80;65.91
84714;BME280;74938;42.658;23.248;2024-03-17T06:23:54;94340.34;;;9.82;64.17
84714;BME280;74938;42.658;23.248;2024-03-17T06:26:20;94339.88;;;10.96;59.25
84714;BME280;74938;42.658;23.248;2024-03-17T06:28:46;94345.69;;;11.79;56.30
84714;BME280;74938;42.658;23.248;2024-03-17T06:31:11;94341.91;;;12.21;55.59
84714;BME280;74938;42.658;23.248;2024-03-17T06:33:37;94348.03;;;12.73;53.90
84714;BME280;74938;42.658;23.248;2024-03-17T06:36:03;94341.19;;;13.74;50.38
84714;BME280;74938;42.658;23.248;2024-03-17T06:38:32;94359.38;;;14.55;48.29
84714;BME280;74938;42.658;23.248;2024-03-17T06:40:57;94352.31;;;14.81;46.58
84714;BME280;74938;42.658;23.248;2024-03-17T06:43:23;94359.13;;;15.66;44.86
84714;BME280;74938;42.658;23.248;2024-03-17T06:45:58;94356.69;;;15.83;45.17
84714;BME280;74938;42.658;23.248;2024-03-17T06:48:25;94360.16;;;16.07;42.56
84714;BME280;74938;42.658;23.248;2024-03-17T06:50:51;94361.03;;;15.89;44.01
84714;BME280;74938;42.658;23.248;2024-03-17T06:53:23;94365.06;;;16.39;42.61
84714;BME280;74938;42.658;23.248;2024-03-17T06:55:56;94362.13;;;16.58;42.01
84714;BME280;74938;42.658;23.248;2024-03-17T06:58:23;94360.44;;;16.87;41.09
84714;BME280;74938;42.658;23.248;2024-03-17T07:01:01;94359.06;;;16.61;41.89
84714;BME280;74938;42.658;23.248;2024-03-17T07:03:29;94364.16;;;16.21;41.48
84714;BME280;74938;42.658;23.248;2024-03-17T07:05:55;94365.28;;;15.54;43.30
84714;BME280;74938;42.658;23.248;2024-03-17T07:08:22;94374.63;;;15.61;45.23
84714;BME280;74938;42.658;23.248;2024-03-17T07:11:03;94361.31;;;15.81;43.11
84714;BME280;74938;42.658;23.248;2024-03-17T07:13:31;94358.75;;;16.93;40.78
84714;BME280;74938;42.658;23.248;2024-03-17T07:15:58;94369.97;;;17.05;41.17
84714;BME280;74938;42.658;23.248;2024-03-17T07:18:43;94366.00;;;17.43;39.31
84714;BME280;74938;42.658;23.248;2024-03-17T07:21:09;94372.44;;;16.53;40.73
84714;BME280;74938;42.658;23.248;2024-03-17T07:23:35;94371.88;;;15.86;42.93
84714;BME280;74938;42.658;23.248;2024-03-17T07:26:02;94371.00;;;16.81;40.43
84714;BME280;74938;42.658;23.248;2024-03-17T07:28:30;94374.97;;;16.83;40.50
84714;BME280;74938;42.658;23.248;2024-03-17T07:30:58;94373.75;;;17.37;39.33
84714;BME280;74938;42.658;23.248;2024-03-17T07:33:24;94375.41;;;17.03;39.77
84714;BME280;74938;42.658;23.248;2024-03-17T07:35:54;94372.13;;;16.96;40.18
84714;BME280;74938;42.658;23.248;2024-03-17T07:38:25;94370.25;;;15.07;45.37
84714;BME280;74938;42.658;23.248;2024-03-17T07:41:07;94373.41;;;14.91;45.58
84714;BME280;74938;42.658;23.248;2024-03-17T07:43:35;94372.06;;;13.89;47.24
84714;BME280;74938;42.658;23.248;2024-03-17T07:46:05;94377.97;;;12.62;52.40
84714;BME280;74938;42.658;23.248;2024-03-17T07:48:32;94376.19;;;12.30;52.12
84714;BME280;74938;42.658;23.248;2024-03-17T07:51:03;94373.59;;;12.16;53.58
84714;BME280;74938;42.658;23.248;2024-03-17T07:53:32;94377.59;;;12.32;53.47
84714;BME280;74938;42.658;23.248;2024-03-17T07:56:12;94378.34;;;11.73;54.26
84714;BME280;74938;42.658;23.248;2024-03-17T07:58:43;94378.09;;;11.55;55.34
84714;BME280;74938;42.658;23.248;2024-03-17T08:01:10;94373.94;;;11.67;55.05
84714;BME280;74938;42.658;23.248;2024-03-17T08:03:37;94374.00;;;12.07;55.18
84714;BME280;74938;42.658;23.248;2024-03-17T08:06:05;94370.63;;;11.19;56.18
84714;BME280;74938;42.658;23.248;2024-03-17T08:08:31;94371.09;;;11.42;57.33
84714;BME280;74938;42.658;23.248;2024-03-17T08:10:57;94375.44;;;11.35;56.37
84714;BME280;74938;42.658;23.248;2024-03-17T08:13:23;94371.03;;;11.23;56.24
84714;BME280;74938;42.658;23.248;2024-03-17T08:15:59;94371.88;;;11.36;56.24
84714;BME280;74938;42.658;23.248;2024-03-17T08:18:25;94374.34;;;11.03;59.00
84714;BME280;74938;42.658;23.248;2024-03-17T08:20:52;94372.03;;;11.28;57.34
84714;BME280;74938;42.658;23.248;2024-03-17T08:23:19;94369.34;;;11.02;57.75
84714;BME280;74938;42.658;23.248;2024-03-17T08:25:55;94376.50;;;11.00;57.44
84714;BME280;74938;42.658;23.248;2024-03-17T08:28:21;94368.97;;;11.11;56.92
84714;BME280;74938;42.658;23.248;2024-03-17T08:33:18;94372.19;;;11.81;56.60
84714;BME280;74938;42.658;23.248;2024-03-17T08:35:58;94369.22;;;12.37;53.84
84714;BME280;74938;42.658;23.248;2024-03-17T08:38:25;94358.44;;;12.13;55.21
84714;BME280;74938;42.658;23.248;2024-03-17T08:40:51;94365.44;;;12.19;54.38
84714;BME280;74938;42.658;23.248;2024-03-17T08:43:18;94351.06;;;12.37;53.29
84714;BME280;74938;42.658;23.248;2024-03-17T08:45:44;94358.38;;;12.79;54.14
84714;BME280;74938;42.658;23.248;2024-03-17T08:48:10;94351.66;;;13.30;52.56
84714;BME280;74938;42.658;23.248;2024-03-17T08:50:38;94355.28;;;13.60;52.22
84714;BME280;74938;42.658;23.248;2024-03-17T08:53:03;94349.75;;;14.06;50.64
84714;BME280;74938;42.658;23.248;2024-03-17T08:55:29;94344.34;;;14.08;49.03
84714;BME280;74938;42.658;23.248;2024-03-17T08:57:54;94345.66;;;13.67;50.35
84714;BME280;74938;42.658;23.248;2024-03-17T09:00:19;94346.75;;;13.84;50.75
84714;BME280;74938;42.658;23.248;2024-03-17T09:02:45;94343.97;;;14.29;49.53
84714;BME280;74938;42.658;23.248;2024-03-17T09:05:10;94336.31;;;14.59;49.54
84714;BME280;74938;42.658;23.248;2024-03-17T09:07:38;94332.25;;;14.88;47.45
84714;BME280;74938;42.658;23.248;2024-03-17T09:10:03;94333.97;;;14.33;47.58
84714;BME280;74938;42.658;23.248;2024-03-17T09:12:29;94336.97;;;14.29;47.68
84714;BME280;74938;42.658;23.248;2024-03-17T09:14:54;94327.72;;;14.58;47.41
84714;BME280;74938;42.658;23.248;2024-03-17T09:17:20;94332.78;;;14.90;47.37
84714;BME280;74938;42.658;23.248;2024-03-17T09:19:46;94326.13;;;14.57;47.07
84714;BME280;74938;42.658;23.248;2024-03-17T09:22:13;94325.03;;;14.47;46.53
84714;BME280;74938;42.658;23.248;2024-03-17T09:24:38;94324.59;;;14.25;47.91
84714;BME280;74938;42.658;23.248;2024-03-17T09:27:03;94317.31;;;14.58;45.42
84714;BME280;74938;42.658;23.248;2024-03-17T09:29:30;94325.41;;;14.50;47.00
84714;BME280;74938;42.658;23.248;2024-03-17T09:31:55;94318.44;;;14.69;44.69
84714;BME280;74938;42.658;23.248;2024-03-17T09:34:21;94317.91;;;14.79;43.21
84714;BME280;74938;42.658;23.248;2024-03-17T09:36:46;94317.94;;;14.36;43.76
84714;BME280;74938;42.658;23.248;2024-03-17T09:39:12;94308.66;;;14.40;45.46
84714;BME280;74938;42.658;23.248;2024-03-17T09:41:39;94310.94;;;14.36;45.25
84714;BME280;74938;42.658;23.248;2024-03-17T09:44:06;94300.25;;;14.44;45.08
84714;BME280;74938;42.658;23.248;2024-03-17T09:46:33;94305.63;;;14.86;44.53
84714;BME280;74938;42.658;23.248;2024-03-17T09:48:59;94312.06;;;15.02;43.50
84714;BME280;74938;42.658;23.248;2024-03-17T09:51:25;94311.97;;;15.08;42.91
84714;BME280;74938;42.658;23.248;2024-03-17T09:53:51;94308.59;;;15.38;42.47
84714;BME280;74938;42.658;23.248;2024-03-17T09:56:18;94306.28;;;14.81;42.60
84714;BME280;74938;42.658;23.248;2024-03-17T09:58:51;94308.78;;;14.26;43.50
84714;BME280;74938;42.658;23.248;2024-03-17T10:01:17;94314.00;;;14.26;37.71
84714;BME280;74938;42.658;23.248;2024-03-17T10:03:53;94311.53;;;14.13;42.20
84714;BME280;74938;42.658;23.248;2024-03-17T10:06:26;94306.06;;;14.40;41.85
84714;BME280;74938;42.658;23.248;2024-03-17T10:08:58;94318.34;;;14.33;41.58
84714;BME280;74938;42.658;23.248;2024-03-17T10:11:34;94313.63;;;14.23;40.31
84714;BME280;74938;42.658;23.248;2024-03-17T10:14:05;94305.09;;;14.16;40.64
84714;BME280;74938;42.658;23.248;2024-03-17T10:16:32;94313.44;;;14.00;42.54
84714;BME280;74938;42.658;23.248;2024-03-17T10:21:38;94312.78;;;13.79;41.20
84714;BME280;74938;42.658;23.248;2024-03-17T10:24:12;94307.41;;;13.74;43.66
84714;BME280;74938;42.658;23.248;2024-03-17T10:26:41;94306.44;;;13.69;44.19
84714;BME280;74938;42.658;23.248;2024-03-17T10:29:22;94313.03;;;13.71;42.08
84714;BME280;74938;42.658;23.248;2024-03-17T10:31:54;94313.97;;;13.83;42.86
84714;BME280;74938;42.658;23.248;2024-03-17T10:34:21;94315.59;;;13.78;43.43
84714;BME280;74938;42.658;23.248;2024-03-17T10:36:50;94312.53;;;14.12;43.57
84714;BME280;74938;42.658;23.248;2024-03-17T10:39:25;94311.44;;;14.02;43.04
84714;BME280;74938;42.658;23.248;2024-03-17T10:42:07;94311.88;;;14.42;43.26
84714;BME280;74938;42.658;23.248;2024-03-17T10:44:35;94316.81;;;13.75;42.54
84714;BME280;74938;42.658;23.248;2024-03-17T10:47:01;94310.94;;;13.55;41.35
84714;BME280;74938;42.658;23.248;2024-03-17T10:49:31;94312.69;;;13.68;41.06
84714;BME280;74938;42.658;23.248;2024-03-17T10:52:05;94309.91;;;13.87;42.72
84714;BME280;74938;42.658;23.248;2024-03-17T10:54:31;94310.56;;;13.83;42.65
84714;BME280;74938;42.658;23.248;2024-03-17T10:59:47;94310.34;;;14.09;44.22
84714;BME280;74938;42.658;23.248;2024-03-17T11:02:25;94311.56;;;14.07;44.12
84714;BME280;74938;42.658;23.248;2024-03-17T11:04:52;94302.28;;;13.92;44.76
84714;BME280;74938;42.658;23.248;2024-03-17T11:07:19;94301.72;;;14.15;45.55
84714;BME280;74938;42.658;23.248;2024-03-17T11:09:46;94297.25;;;13.98;45.79
84714;BME280;74938;42.658;23.248;2024-03-17T11:17:45;94301.34;;;14.12;45.87
84714;BME280;74938;42.658;23.248;2024-03-17T11:20:15;94291.66;;;14.01;44.27
84714;BME280;74938;42.658;23.248;2024-03-17T11:22:43;94289.78;;;13.83;44.53
84714;BME280;74938;42.658;23.248;2024-03-17T11:27:59;94296.94;;;14.12;44.35
84714;BME280;74938;42.658;23.248;2024-03-17T11:38:58;94279.41;;;13.83;39.16
84714;BME280;74938;42.658;23.248;2024-03-17T11:41:45;94274.50;;;14.18;39.07
84714;BME280;74938;42.658;23.248;2024-03-17T11:46:44;94267.25;;;14.63;38.57
84714;BME280;74938;42.658;23.248;2024-03-17T11:49:25;94260.47;;;14.62;38.26
84714;BME280;74938;42.658;23.248;2024-03-17T11:51:52;94255.25;;;14.62;38.55
84714;BME280;74938;42.658;23.248;2024-03-17T11:54:22;94260.34;;;14.32;39.35
84714;BME280;74938;42.658;23.248;2024-03-17T11:56:50;94257.66;;;14.02;39.21
84714;BME280;74938;42.658;23.248;2024-03-17T11:59:16;94258.59;;;13.83;39.60
84714;BME280;74938;42.658;23.248;2024-03-17T12:01:46;94256.53;;;13.91;40.70
84714;BME280;74938;42.658;23.248;2024-03-17T12:04:13;94262.69;;;13.72;41.53
84714;BME280;74938;42.658;23.248;2024-03-17T12:06:39;94255.72;;;13.91;40.88
84714;BME280;74938;42.658;23.248;2024-03-17T12:12:04;94259.34;;;13.65;41.57
84714;BME280;74938;42.658;23.248;2024-03-17T12:14:30;94265.88;;;13.43;42.05
84714;BME280;74938;42.658;23.248;2024-03-17T12:16:58;94258.81;;;13.25;42.08
84714;BME280;74938;42.658;23.248;2024-03-17T12:19:24;94254.88;;;13.09;43.69
84714;BME280;74938;42.658;23.248;2024-03-17T12:21:51;94253.78;;;13.30;44.94
84714;BME280;74938;42.658;23.248;2024-03-17T12:24:21;94257.97;;;13.31;44.66
84714;BME280;74938;42.658;23.248;2024-03-17T12:26:48;94257.59;;;13.28;44.90
84714;BME280;74938;42.658;23.248;2024-03-17T12:29:28;94259.28;;;13.02;45.80
84714;BME280;74938;42.658;23.248;2024-03-17T12:31:57;94261.25;;;13.13;46.29
84714;BME280;74938;42.658;23.248;2024-03-17T12:34:25;94262.47;;;13.11;46.86
84714;BME280;74938;42.658;23.248;2024-03-17T12:36:54;94252.94;;;12.98;46.59
84714;BME280;74938;42.658;23.248;2024-03-17T12:39:22;94259.34;;;13.34;46.99
84714;BME280;74938;42.658;23.248;2024-03-17T12:42:08;94244.28;;;13.17;47.83
84714;BME280;74938;42.658;23.248;2024-03-17T12:44:38;94252.94;;;13.36;48.11
84714;BME280;74938;42.658;23.248;2024-03-17T12:47:14;94249.22;;;13.26;48.03
84714;BME280;74938;42.658;23.248;2024-03-17T12:49:49;94243.63;;;13.29;48.47
84714;BME280;74938;42.658;23.248;2024-03-17T12:52:19;94247.84;;;13.23;49.18
84714;BME280;74938;42.658;23.248;2024-03-17T12:54:45;94251.38;;;12.90;49.18
84714;BME280;74938;42.658;23.248;2024-03-17T12:57:20;94248.19;;;12.95;49.72
84714;BME280;74938;42.658;23.248;2024-03-17T13:00:16;94253.06;;;13.16;48.74
84714;BME280;74938;42.658;23.248;2024-03-17T13:03:06;94242.91;;;13.15;49.41
84714;BME280;74938;42.658;23.248;2024-03-17T13:05:33;94244.00;;;13.32;49.61
84714;BME280;74938;42.658;23.248;2024-03-17T13:07:59;94239.25;;;13.22;49.96
84714;BME280;74938;42.658;23.248;2024-03-17T13:10:26;94243.25;;;13.25;50.04
84714;BME280;74938;42.658;23.248;2024-03-17T13:13:00;94241.28;;;13.14;49.29
84714;BME280;74938;42.658;23.248;2024-03-17T13:15:29;94236.16;;;13.01;49.59
84714;BME280;74938;42.658;23.248;2024-03-17T13:17:58;94238.84;;;13.26;50.37
84714;BME280;74938;42.658;23.248;2024-03-17T13:20:24;94242.91;;;13.08;51.17
84714;BME280;74938;42.658;23.248;2024-03-17T13:22:50;94238.59;;;12.96;50.62
84714;BME280;74938;42.658;23.248;2024-03-17T13:25:20;94243.59;;;12.97;50.42
84714;BME280;74938;42.658;23.248;2024-03-17T13:27:47;94238.63;;;12.82;51.21
84714;BME280;74938;42.658;23.248;2024-03-17T13:30:14;94238.00;;;12.94;51.51